FR-0230 weather

Hôtel Du Château Heliport
Divonne, Auvergne-Rhône-Alpes, France

Public forecast

Using degrees Celsius for public forecast. Weather courtesy of forecast.io.

Closest aviation weather report (METAR) to Hôtel Du Château Heliport

Closest report is Geneva Cointrin International Airport, 7.3 nm (13.5 km) S. Retrieved 2020/06/02 13:20 UTC (35 minutes ago):

LSGG 021320Z VRB03KT 9999 VCTS FEW045 FEW050CB 25/09 Q1015 TEMPO TS

Closest aviation forecast (TAF) to Hôtel Du Château Heliport

Closest forecast is Geneva Cointrin International Airport, 7.3 nm (13.5 km) S. Retrieved 2020/06/02 12:33 UTC (1 hour ago):

TAF TAF LSGG 021125Z 0212/0318 05007KT 9999 FEW050 TX26/0215Z TN12/0305Z TX26/0315Z TEMPO 0212/0215 FEW050CB BECMG 0310/0312 22012KT SHRA